sensor_id;sensor_type;location;lat;lon;timestamp;P1;durP1;ratioP1;P2;durP2;ratioP2
12127;SDS011;6127;57.702;11.904;2023-04-03T00:01:30;0.50;;;0.50;;
12127;SDS011;6127;57.702;11.904;2023-04-03T00:03:56;0.60;;;0.60;;
12127;SDS011;6127;57.702;11.904;2023-04-03T00:06:23;0.50;;;0.50;;
12127;SDS011;6127;57.702;11.904;2023-04-03T00:08:49;0.60;;;0.60;;
12127;SDS011;6127;57.702;11.904;2023-04-03T00:11:16;0.50;;;0.50;;
12127;SDS011;6127;57.702;11.904;2023-04-03T00:13:42;0.60;;;0.60;;
12127;SDS011;6127;57.702;11.904;2023-04-03T00:16:08;0.60;;;0.60;;
12127;SDS011;6127;57.702;11.904;2023-04-03T00:18:35;0.50;;;0.50;;
12127;SDS011;6127;57.702;11.904;2023-04-03T00:21:01;0.60;;;0.60;;
12127;SDS011;6127;57.702;11.904;2023-04-03T00:23:27;0.50;;;0.50;;
12127;SDS011;6127;57.702;11.904;2023-04-03T00:25:53;0.60;;;0.60;;
12127;SDS011;6127;57.702;11.904;2023-04-03T00:28:19;0.50;;;0.50;;
12127;SDS011;6127;57.702;11.904;2023-04-03T00:30:45;0.50;;;0.50;;
12127;SDS011;6127;57.702;11.904;2023-04-03T00:33:12;0.60;;;0.60;;
12127;SDS011;6127;57.702;11.904;2023-04-03T00:35:38;0.50;;;0.50;;
12127;SDS011;6127;57.702;11.904;2023-04-03T00:38:05;0.60;;;0.60;;
12127;SDS011;6127;57.702;11.904;2023-04-03T00:40:34;0.43;;;0.43;;
12127;SDS011;6127;57.702;11.904;2023-04-03T00:43:00;0.50;;;0.50;;
12127;SDS011;6127;57.702;11.904;2023-04-03T00:45:30;0.60;;;0.60;;
12127;SDS011;6127;57.702;11.904;2023-04-03T00:47:56;0.50;;;0.50;;
12127;SDS011;6127;57.702;11.904;2023-04-03T00:50:24;0.50;;;0.50;;
12127;SDS011;6127;57.702;11.904;2023-04-03T00:52:50;0.40;;;0.40;;
12127;SDS011;6127;57.702;11.904;2023-04-03T00:55:16;0.60;;;0.60;;
12127;SDS011;6127;57.702;11.904;2023-04-03T00:57:42;0.60;;;0.60;;
12127;SDS011;6127;57.702;11.904;2023-04-03T01:00:10;0.50;;;0.50;;
12127;SDS011;6127;57.702;11.904;2023-04-03T01:02:37;0.60;;;0.60;;
12127;SDS011;6127;57.702;11.904;2023-04-03T01:05:06;0.40;;;0.40;;
12127;SDS011;6127;57.702;11.904;2023-04-03T01:07:32;0.55;;;0.55;;
12127;SDS011;6127;57.702;11.904;2023-04-03T01:10:00;0.60;;;0.60;;
12127;SDS011;6127;57.702;11.904;2023-04-03T01:12:28;0.50;;;0.50;;
12127;SDS011;6127;57.702;11.904;2023-04-03T01:14:55;0.60;;;0.60;;
12127;SDS011;6127;57.702;11.904;2023-04-03T01:17:30;0.40;;;0.40;;
12127;SDS011;6127;57.702;11.904;2023-04-03T01:20:12;0.60;;;0.60;;
12127;SDS011;6127;57.702;11.904;2023-04-03T01:22:54;0.60;;;0.60;;
12127;SDS011;6127;57.702;11.904;2023-04-03T01:25:22;0.50;;;0.50;;
12127;SDS011;6127;57.702;11.904;2023-04-03T01:27:48;0.60;;;0.60;;
12127;SDS011;6127;57.702;11.904;2023-04-03T01:30:14;0.60;;;0.60;;
12127;SDS011;6127;57.702;11.904;2023-04-03T01:32:42;0.50;;;0.50;;
12127;SDS011;6127;57.702;11.904;2023-04-03T01:35:08;0.60;;;0.60;;
12127;SDS011;6127;57.702;11.904;2023-04-03T01:37:34;0.50;;;0.50;;
12127;SDS011;6127;57.702;11.904;2023-04-03T01:40:00;0.60;;;0.60;;
12127;SDS011;6127;57.702;11.904;2023-04-03T01:42:26;0.50;;;0.50;;
12127;SDS011;6127;57.702;11.904;2023-04-03T01:44:52;0.60;;;0.60;;
12127;SDS011;6127;57.702;11.904;2023-04-03T01:47:18;0.60;;;0.60;;
12127;SDS011;6127;57.702;11.904;2023-04-03T01:49:45;0.50;;;0.50;;
12127;SDS011;6127;57.702;11.904;2023-04-03T01:52:11;0.50;;;0.50;;
12127;SDS011;6127;57.702;11.904;2023-04-03T01:54:37;0.52;;;0.52;;
12127;SDS011;6127;57.702;11.904;2023-04-03T01:57:03;0.50;;;0.50;;
12127;SDS011;6127;57.702;11.904;2023-04-03T01:59:28;0.60;;;0.60;;
12127;SDS011;6127;57.702;11.904;2023-04-03T02:01:54;0.40;;;0.40;;
12127;SDS011;6127;57.702;11.904;2023-04-03T02:04:20;0.50;;;0.50;;
12127;SDS011;6127;57.702;11.904;2023-04-03T02:06:46;0.70;;;0.70;;
12127;SDS011;6127;57.702;11.904;2023-04-03T02:09:12;0.50;;;0.50;;
12127;SDS011;6127;57.702;11.904;2023-04-03T02:11:38;0.60;;;0.60;;
12127;SDS011;6127;57.702;11.904;2023-04-03T02:14:04;0.50;;;0.50;;
12127;SDS011;6127;57.702;11.904;2023-04-03T02:16:30;0.50;;;0.50;;
12127;SDS011;6127;57.702;11.904;2023-04-03T02:18:56;0.43;;;0.43;;
12127;SDS011;6127;57.702;11.904;2023-04-03T02:21:22;0.50;;;0.50;;
12127;SDS011;6127;57.702;11.904;2023-04-03T02:23:48;0.60;;;0.60;;
12127;SDS011;6127;57.702;11.904;2023-04-03T02:26:15;0.50;;;0.50;;
12127;SDS011;6127;57.702;11.904;2023-04-03T02:28:41;0.60;;;0.60;;
12127;SDS011;6127;57.702;11.904;2023-04-03T02:31:08;0.47;;;0.47;;
12127;SDS011;6127;57.702;11.904;2023-04-03T02:33:34;0.60;;;0.60;;
12127;SDS011;6127;57.702;11.904;2023-04-03T02:36:04;0.43;;;0.43;;
12127;SDS011;6127;57.702;11.904;2023-04-03T02:38:30;0.60;;;0.60;;
12127;SDS011;6127;57.702;11.904;2023-04-03T02:41:00;0.60;;;0.60;;
12127;SDS011;6127;57.702;11.904;2023-04-03T02:43:27;0.50;;;0.50;;
12127;SDS011;6127;57.702;11.904;2023-04-03T02:45:53;0.60;;;0.60;;
12127;SDS011;6127;57.702;11.904;2023-04-03T02:48:18;0.50;;;0.50;;
12127;SDS011;6127;57.702;11.904;2023-04-03T02:50:44;0.50;;;0.50;;
12127;SDS011;6127;57.702;11.904;2023-04-03T02:53:10;0.60;;;0.60;;
12127;SDS011;6127;57.702;11.904;2023-04-03T02:55:36;0.50;;;0.50;;
12127;SDS011;6127;57.702;11.904;2023-04-03T02:58:02;0.60;;;0.60;;
12127;SDS011;6127;57.702;11.904;2023-04-03T03:00:28;0.40;;;0.40;;
12127;SDS011;6127;57.702;11.904;2023-04-03T03:02:54;0.60;;;0.60;;
12127;SDS011;6127;57.702;11.904;2023-04-03T03:05:20;0.50;;;0.50;;
12127;SDS011;6127;57.702;11.904;2023-04-03T03:07:46;0.60;;;0.60;;
12127;SDS011;6127;57.702;11.904;2023-04-03T03:10:13;0.60;;;0.60;;
12127;SDS011;6127;57.702;11.904;2023-04-03T03:12:39;0.60;;;0.60;;
12127;SDS011;6127;57.702;11.904;2023-04-03T03:15:05;0.60;;;0.60;;
12127;SDS011;6127;57.702;11.904;2023-04-03T03:17:31;0.50;;;0.50;;
12127;SDS011;6127;57.702;11.904;2023-04-03T03:19:57;0.60;;;0.60;;
12127;SDS011;6127;57.702;11.904;2023-04-03T03:22:23;0.40;;;0.40;;
12127;SDS011;6127;57.702;11.904;2023-04-03T03:24:49;0.60;;;0.60;;
12127;SDS011;6127;57.702;11.904;2023-04-03T03:27:15;0.60;;;0.60;;
12127;SDS011;6127;57.702;11.904;2023-04-03T03:29:42;0.50;;;0.50;;
12127;SDS011;6127;57.702;11.904;2023-04-03T03:32:08;0.57;;;0.57;;
12127;SDS011;6127;57.702;11.904;2023-04-03T03:34:34;0.50;;;0.50;;
12127;SDS011;6127;57.702;11.904;2023-04-03T03:37:00;0.60;;;0.60;;
12127;SDS011;6127;57.702;11.904;2023-04-03T03:39:26;0.50;;;0.50;;
12127;SDS011;6127;57.702;11.904;2023-04-03T03:41:52;0.60;;;0.60;;
12127;SDS011;6127;57.702;11.904;2023-04-03T03:44:18;0.60;;;0.60;;
12127;SDS011;6127;57.702;11.904;2023-04-03T03:46:44;0.50;;;0.50;;
12127;SDS011;6127;57.702;11.904;2023-04-03T03:49:10;0.60;;;0.60;;
12127;SDS011;6127;57.702;11.904;2023-04-03T03:51:37;0.50;;;0.50;;
12127;SDS011;6127;57.702;11.904;2023-04-03T03:54:03;0.60;;;0.60;;
12127;SDS011;6127;57.702;11.904;2023-04-03T03:56:29;0.50;;;0.50;;
12127;SDS011;6127;57.702;11.904;2023-04-03T03:58:55;0.50;;;0.50;;
12127;SDS011;6127;57.702;11.904;2023-04-03T04:01:22;0.50;;;0.50;;
12127;SDS011;6127;57.702;11.904;2023-04-03T04:03:48;0.60;;;0.60;;
12127;SDS011;6127;57.702;11.904;2023-04-03T04:06:14;0.60;;;0.60;;
12127;SDS011;6127;57.702;11.904;2023-04-03T04:08:40;0.50;;;0.50;;
12127;SDS011;6127;57.702;11.904;2023-04-03T04:11:06;0.60;;;0.60;;
12127;SDS011;6127;57.702;11.904;2023-04-03T04:13:32;0.50;;;0.50;;
12127;SDS011;6127;57.702;11.904;2023-04-03T04:15:58;0.60;;;0.60;;
12127;SDS011;6127;57.702;11.904;2023-04-03T04:18:24;0.50;;;0.50;;
12127;SDS011;6127;57.702;11.904;2023-04-03T04:20:50;0.60;;;0.60;;
12127;SDS011;6127;57.702;11.904;2023-04-03T04:23:16;0.50;;;0.50;;
12127;SDS011;6127;57.702;11.904;2023-04-03T04:25:46;0.60;;;0.60;;
12127;SDS011;6127;57.702;11.904;2023-04-03T04:28:12;0.40;;;0.40;;
12127;SDS011;6127;57.702;11.904;2023-04-03T04:30:38;0.50;;;0.50;;
12127;SDS011;6127;57.702;11.904;2023-04-03T04:33:04;0.60;;;0.60;;
12127;SDS011;6127;57.702;11.904;2023-04-03T04:35:31;0.50;;;0.50;;
12127;SDS011;6127;57.702;11.904;2023-04-03T04:37:57;0.60;;;0.60;;
12127;SDS011;6127;57.702;11.904;2023-04-03T04:40:23;0.50;;;0.50;;
12127;SDS011;6127;57.702;11.904;2023-04-03T04:42:49;0.60;;;0.60;;
12127;SDS011;6127;57.702;11.904;2023-04-03T04:45:15;0.50;;;0.50;;
12127;SDS011;6127;57.702;11.904;2023-04-03T04:47:42;0.60;;;0.60;;
12127;SDS011;6127;57.702;11.904;2023-04-03T04:50:08;0.50;;;0.50;;
12127;SDS011;6127;57.702;11.904;2023-04-03T04:52:34;0.60;;;0.60;;
12127;SDS011;6127;57.702;11.904;2023-04-03T04:55:00;0.50;;;0.50;;
12127;SDS011;6127;57.702;11.904;2023-04-03T04:57:26;0.60;;;0.60;;
12127;SDS011;6127;57.702;11.904;2023-04-03T04:59:52;0.50;;;0.50;;
12127;SDS011;6127;57.702;11.904;2023-04-03T05:02:18;0.60;;;0.60;;
12127;SDS011;6127;57.702;11.904;2023-04-03T05:04:44;0.57;;;0.57;;
12127;SDS011;6127;57.702;11.904;2023-04-03T05:07:10;0.60;;;0.60;;
12127;SDS011;6127;57.702;11.904;2023-04-03T05:09:36;0.60;;;0.60;;
12127;SDS011;6127;57.702;11.904;2023-04-03T05:12:02;0.60;;;0.60;;
12127;SDS011;6127;57.702;11.904;2023-04-03T05:14:28;0.60;;;0.60;;
12127;SDS011;6127;57.702;11.904;2023-04-03T05:16:54;0.50;;;0.50;;
12127;SDS011;6127;57.702;11.904;2023-04-03T05:19:21;0.60;;;0.60;;
12127;SDS011;6127;57.702;11.904;2023-04-03T05:21:47;0.55;;;0.55;;
12127;SDS011;6127;57.702;11.904;2023-04-03T05:24:14;0.60;;;0.60;;
12127;SDS011;6127;57.702;11.904;2023-04-03T05:26:40;0.50;;;0.50;;
12127;SDS011;6127;57.702;11.904;2023-04-03T05:29:06;0.60;;;0.60;;
12127;SDS011;6127;57.702;11.904;2023-04-03T05:31:32;0.50;;;0.50;;
12127;SDS011;6127;57.702;11.904;2023-04-03T05:33:58;0.60;;;0.60;;
12127;SDS011;6127;57.702;11.904;2023-04-03T05:36:24;0.60;;;0.60;;
12127;SDS011;6127;57.702;11.904;2023-04-03T05:38:51;0.50;;;0.50;;
12127;SDS011;6127;57.702;11.904;2023-04-03T05:41:17;0.60;;;0.60;;
12127;SDS011;6127;57.702;11.904;2023-04-03T05:43:43;0.50;;;0.50;;
12127;SDS011;6127;57.702;11.904;2023-04-03T05:46:12;0.60;;;0.60;;
12127;SDS011;6127;57.702;11.904;2023-04-03T05:48:38;0.40;;;0.40;;
12127;SDS011;6127;57.702;11.904;2023-04-03T05:51:05;0.60;;;0.60;;
12127;SDS011;6127;57.702;11.904;2023-04-03T05:53:31;0.50;;;0.50;;
12127;SDS011;6127;57.702;11.904;2023-04-03T05:55:58;0.50;;;0.50;;
12127;SDS011;6127;57.702;11.904;2023-04-03T05:58:24;0.60;;;0.60;;
12127;SDS011;6127;57.702;11.904;2023-04-03T06:00:50;0.50;;;0.50;;
12127;SDS011;6127;57.702;11.904;2023-04-03T06:03:16;0.60;;;0.60;;
12127;SDS011;6127;57.702;11.904;2023-04-03T06:05:42;0.50;;;0.50;;
12127;SDS011;6127;57.702;11.904;2023-04-03T06:08:08;0.60;;;0.60;;
12127;SDS011;6127;57.702;11.904;2023-04-03T06:10:34;0.60;;;0.60;;
12127;SDS011;6127;57.702;11.904;2023-04-03T06:13:01;0.50;;;0.50;;
12127;SDS011;6127;57.702;11.904;2023-04-03T06:15:27;0.60;;;0.60;;
12127;SDS011;6127;57.702;11.904;2023-04-03T06:17:53;0.50;;;0.50;;
12127;SDS011;6127;57.702;11.904;2023-04-03T06:20:19;0.60;;;0.60;;
12127;SDS011;6127;57.702;11.904;2023-04-03T06:22:45;0.40;;;0.40;;
12127;SDS011;6127;57.702;11.904;2023-04-03T06:25:11;0.55;;;0.55;;
12127;SDS011;6127;57.702;11.904;2023-04-03T06:27:37;0.60;;;0.60;;
12127;SDS011;6127;57.702;11.904;2023-04-03T06:30:04;0.52;;;0.52;;
12127;SDS011;6127;57.702;11.904;2023-04-03T06:32:31;0.60;;;0.60;;
12127;SDS011;6127;57.702;11.904;2023-04-03T06:34:57;0.50;;;0.50;;
12127;SDS011;6127;57.702;11.904;2023-04-03T06:37:23;0.60;;;0.60;;
12127;SDS011;6127;57.702;11.904;2023-04-03T06:39:51;0.50;;;0.50;;
12127;SDS011;6127;57.702;11.904;2023-04-03T06:42:17;0.52;;;0.52;;
12127;SDS011;6127;57.702;11.904;2023-04-03T06:44:43;0.60;;;0.60;;
12127;SDS011;6127;57.702;11.904;2023-04-03T06:47:18;0.50;;;0.50;;
12127;SDS011;6127;57.702;11.904;2023-04-03T06:49:44;0.60;;;0.60;;
12127;SDS011;6127;57.702;11.904;2023-04-03T06:52:11;0.60;;;0.60;;
12127;SDS011;6127;57.702;11.904;2023-04-03T06:54:37;0.50;;;0.50;;
12127;SDS011;6127;57.702;11.904;2023-04-03T06:57:03;0.60;;;0.60;;
12127;SDS011;6127;57.702;11.904;2023-04-03T06:59:29;0.40;;;0.40;;
12127;SDS011;6127;57.702;11.904;2023-04-03T07:01:55;0.50;;;0.50;;
12127;SDS011;6127;57.702;11.904;2023-04-03T07:04:23;0.52;;;0.52;;
12127;SDS011;6127;57.702;11.904;2023-04-03T07:06:49;0.40;;;0.40;;
12127;SDS011;6127;57.702;11.904;2023-04-03T07:09:15;0.60;;;0.60;;
12127;SDS011;6127;57.702;11.904;2023-04-03T07:11:41;0.60;;;0.60;;
12127;SDS011;6127;57.702;11.904;2023-04-03T07:14:07;0.50;;;0.50;;
12127;SDS011;6127;57.702;11.904;2023-04-03T07:16:34;0.60;;;0.60;;
12127;SDS011;6127;57.702;11.904;2023-04-03T07:19:00;0.60;;;0.60;;
12127;SDS011;6127;57.702;11.904;2023-04-03T07:21:26;0.50;;;0.50;;
12127;SDS011;6127;57.702;11.904;2023-04-03T07:23:53;0.60;;;0.60;;
12127;SDS011;6127;57.702;11.904;2023-04-03T07:26:19;0.40;;;0.40;;
12127;SDS011;6127;57.702;11.904;2023-04-03T07:28:45;0.50;;;0.50;;
12127;SDS011;6127;57.702;11.904;2023-04-03T07:31:14;0.50;;;0.50;;
12127;SDS011;6127;57.702;11.904;2023-04-03T07:33:40;0.40;;;0.40;;
12127;SDS011;6127;57.702;11.904;2023-04-03T07:36:07;0.40;;;0.40;;
12127;SDS011;6127;57.702;11.904;2023-04-03T07:38:34;0.60;;;0.60;;
12127;SDS011;6127;57.702;11.904;2023-04-03T07:41:00;0.60;;;0.60;;
12127;SDS011;6127;57.702;11.904;2023-04-03T07:43:26;0.40;;;0.40;;
12127;SDS011;6127;57.702;11.904;2023-04-03T07:45:52;0.50;;;0.50;;
12127;SDS011;6127;57.702;11.904;2023-04-03T07:48:19;0.60;;;0.60;;
12127;SDS011;6127;57.702;11.904;2023-04-03T07:50:46;0.50;;;0.50;;
12127;SDS011;6127;57.702;11.904;2023-04-03T07:53:12;0.60;;;0.60;;
12127;SDS011;6127;57.702;11.904;2023-04-03T07:55:38;0.60;;;0.60;;
12127;SDS011;6127;57.702;11.904;2023-04-03T07:58:11;0.40;;;0.40;;
12127;SDS011;6127;57.702;11.904;2023-04-03T08:00:37;0.50;;;0.50;;
12127;SDS011;6127;57.702;11.904;2023-04-03T08:03:04;0.60;;;0.60;;
12127;SDS011;6127;57.702;11.904;2023-04-03T08:05:30;0.40;;;0.40;;
12127;SDS011;6127;57.702;11.904;2023-04-03T08:07:56;0.50;;;0.50;;
12127;SDS011;6127;57.702;11.904;2023-04-03T08:10:23;0.50;;;0.50;;
12127;SDS011;6127;57.702;11.904;2023-04-03T08:12:49;0.50;;;0.50;;
12127;SDS011;6127;57.702;11.904;2023-04-03T08:15:16;0.30;;;0.30;;
12127;SDS011;6127;57.702;11.904;2023-04-03T08:17:42;0.35;;;0.35;;
12127;SDS011;6127;57.702;11.904;2023-04-03T08:20:09;0.40;;;0.40;;
12127;SDS011;6127;57.702;11.904;2023-04-03T08:22:35;0.40;;;0.40;;
12127;SDS011;6127;57.702;11.904;2023-04-03T08:25:03;0.40;;;0.40;;
12127;SDS011;6127;57.702;11.904;2023-04-03T08:27:29;0.40;;;0.40;;
12127;SDS011;6127;57.702;11.904;2023-04-03T08:29:55;0.40;;;0.40;;
12127;SDS011;6127;57.702;11.904;2023-04-03T08:32:21;0.50;;;0.50;;
12127;SDS011;6127;57.702;11.904;2023-04-03T08:34:48;0.50;;;0.50;;
12127;SDS011;6127;57.702;11.904;2023-04-03T08:37:14;0.50;;;0.50;;
12127;SDS011;6127;57.702;11.904;2023-04-03T08:39:41;0.50;;;0.50;;
12127;SDS011;6127;57.702;11.904;2023-04-03T08:42:24;0.52;;;0.52;;
12127;SDS011;6127;57.702;11.904;2023-04-03T08:50:06;0.40;;;0.40;;
12127;SDS011;6127;57.702;11.904;2023-04-03T08:52:50;0.40;;;0.40;;
12127;SDS011;6127;57.702;11.904;2023-04-03T08:57:49;0.30;;;0.30;;
12127;SDS011;6127;57.702;11.904;2023-04-03T09:00:18;0.20;;;0.20;;
12127;SDS011;6127;57.702;11.904;2023-04-03T09:02:45;0.20;;;0.20;;
12127;SDS011;6127;57.702;11.904;2023-04-03T09:05:13;0.40;;;0.40;;
12127;SDS011;6127;57.702;11.904;2023-04-03T09:07:42;0.40;;;0.40;;
12127;SDS011;6127;57.702;11.904;2023-04-03T09:10:10;0.30;;;0.30;;
12127;SDS011;6127;57.702;11.904;2023-04-03T09:12:38;0.20;;;0.20;;
12127;SDS011;6127;57.702;11.904;2023-04-03T09:22:54;0.30;;;0.30;;
12127;SDS011;6127;57.702;11.904;2023-04-03T09:25:28;0.40;;;0.40;;
12127;SDS011;6127;57.702;11.904;2023-04-03T09:27:58;0.30;;;0.30;;
12127;SDS011;6127;57.702;11.904;2023-04-03T09:30:25;0.30;;;0.30;;
12127;SDS011;6127;57.702;11.904;2023-04-03T09:32:53;0.20;;;0.20;;
12127;SDS011;6127;57.702;11.904;2023-04-03T09:35:21;0.30;;;0.30;;
12127;SDS011;6127;57.702;11.904;2023-04-03T09:37:48;0.50;;;0.50;;
12127;SDS011;6127;57.702;11.904;2023-04-03T09:40:32;0.40;;;0.40;;
12127;SDS011;6127;57.702;11.904;2023-04-03T09:43:18;0.30;;;0.30;;
12127;SDS011;6127;57.702;11.904;2023-04-03T09:45:45;0.28;;;0.28;;
12127;SDS011;6127;57.702;11.904;2023-04-03T09:50:38;0.47;;;0.47;;
12127;SDS011;6127;57.702;11.904;2023-04-03T09:53:35;0.40;;;0.40;;
12127;SDS011;6127;57.702;11.904;2023-04-03T09:56:02;0.20;;;0.20;;
12127;SDS011;6127;57.702;11.904;2023-04-03T09:58:33;0.22;;;0.22;;
12127;SDS011;6127;57.702;11.904;2023-04-03T10:01:03;0.30;;;0.30;;
12127;SDS011;6127;57.702;11.904;2023-04-03T10:03:30;0.30;;;0.30;;
12127;SDS011;6127;57.702;11.904;2023-04-03T10:05:57;0.30;;;0.30;;
12127;SDS011;6127;57.702;11.904;2023-04-03T10:08:28;0.20;;;0.20;;
12127;SDS011;6127;57.702;11.904;2023-04-03T10:11:16;0.30;;;0.30;;
12127;SDS011;6127;57.702;11.904;2023-04-03T10:13:52;0.25;;;0.25;;
12127;SDS011;6127;57.702;11.904;2023-04-03T10:16:20;0.10;;;0.10;;
12127;SDS011;6127;57.702;11.904;2023-04-03T10:18:59;0.20;;;0.20;;
12127;SDS011;6127;57.702;11.904;2023-04-03T10:21:32;0.20;;;0.20;;
12127;SDS011;6127;57.702;11.904;2023-04-03T10:24:09;0.30;;;0.30;;
12127;SDS011;6127;57.702;11.904;2023-04-03T10:26:57;0.20;;;0.20;;
12127;SDS011;6127;57.702;11.904;2023-04-03T10:29:31;0.10;;;0.10;;
12127;SDS011;6127;57.702;11.904;2023-04-03T10:34:45;0.30;;;0.30;;
12127;SDS011;6127;57.702;11.904;2023-04-03T10:42:14;0.30;;;0.30;;
12127;SDS011;6127;57.702;11.904;2023-04-03T10:45:01;0.20;;;0.20;;
12127;SDS011;6127;57.702;11.904;2023-04-03T10:47:42;0.30;;;0.30;;
12127;SDS011;6127;57.702;11.904;2023-04-03T10:50:19;0.30;;;0.30;;
12127;SDS011;6127;57.702;11.904;2023-04-03T10:52:57;0.20;;;0.20;;
12127;SDS011;6127;57.702;11.904;2023-04-03T10:57:54;0.30;;;0.30;;
12127;SDS011;6127;57.702;11.904;2023-04-03T11:00:24;0.20;;;0.20;;
12127;SDS011;6127;57.702;11.904;2023-04-03T11:02:52;0.30;;;0.30;;
12127;SDS011;6127;57.702;11.904;2023-04-03T11:07:52;0.30;;;0.30;;
12127;SDS011;6127;57.702;11.904;2023-04-03T11:10:21;0.40;;;0.40;;
12127;SDS011;6127;57.702;11.904;2023-04-03T11:12:56;0.30;;;0.30;;
12127;SDS011;6127;57.702;11.904;2023-04-03T11:15:24;0.20;;;0.20;;
12127;SDS011;6127;57.702;11.904;2023-04-03T11:17:58;0.38;;;0.38;;
12127;SDS011;6127;57.702;11.904;2023-04-03T11:20:29;0.30;;;0.30;;
12127;SDS011;6127;57.702;11.904;2023-04-03T11:25:42;0.40;;;0.40;;
12127;SDS011;6127;57.702;11.904;2023-04-03T11:28:12;0.30;;;0.30;;
12127;SDS011;6127;57.702;11.904;2023-04-03T11:33:10;0.40;;;0.40;;
12127;SDS011;6127;57.702;11.904;2023-04-03T11:35:41;0.30;;;0.30;;
12127;SDS011;6127;57.702;11.904;2023-04-03T11:38:10;0.20;;;0.20;;
12127;SDS011;6127;57.702;11.904;2023-04-03T11:40:40;0.30;;;0.30;;
12127;SDS011;6127;57.702;11.904;2023-04-03T11:43:23;0.40;;;0.40;;
12127;SDS011;6127;57.702;11.904;2023-04-03T11:50:56;0.33;;;0.33;;
12127;SDS011;6127;57.702;11.904;2023-04-03T11:55:56;0.35;;;0.35;;
12127;SDS011;6127;57.702;11.904;2023-04-03T11:58:32;0.40;;;0.40;;
12127;SDS011;6127;57.702;11.904;2023-04-03T12:14:21;0.30;;;0.30;;
12127;SDS011;6127;57.702;11.904;2023-04-03T12:23:57;0.40;;;0.40;;
12127;SDS011;6127;57.702;11.904;2023-04-03T12:34:45;0.30;;;0.30;;
12127;SDS011;6127;57.702;11.904;2023-04-03T12:37:17;0.32;;;0.32;;
12127;SDS011;6127;57.702;11.904;2023-04-03T12:45:16;0.30;;;0.30;;
12127;SDS011;6127;57.702;11.904;2023-04-03T12:47:43;0.30;;;0.30;;
12127;SDS011;6127;57.702;11.904;2023-04-03T12:55:21;0.22;;;0.22;;
12127;SDS011;6127;57.702;11.904;2023-04-03T12:57:47;0.30;;;0.30;;
12127;SDS011;6127;57.702;11.904;2023-04-03T13:00:28;0.20;;;0.20;;
12127;SDS011;6127;57.702;11.904;2023-04-03T13:02:54;0.20;;;0.20;;
12127;SDS011;6127;57.702;11.904;2023-04-03T13:05:21;0.20;;;0.20;;
12127;SDS011;6127;57.702;11.904;2023-04-03T13:07:52;0.30;;;0.30;;
12127;SDS011;6127;57.702;11.904;2023-04-03T13:10:19;0.30;;;0.30;;
12127;SDS011;6127;57.702;11.904;2023-04-03T13:12:53;0.15;;;0.15;;
12127;SDS011;6127;57.702;11.904;2023-04-03T13:17:51;0.40;;;0.40;;
12127;SDS011;6127;57.702;11.904;2023-04-03T13:20:22;0.20;;;0.20;;
12127;SDS011;6127;57.702;11.904;2023-04-03T13:25:16;0.20;;;0.20;;
12127;SDS011;6127;57.702;11.904;2023-04-03T13:27:42;0.20;;;0.20;;
12127;SDS011;6127;57.702;11.904;2023-04-03T13:33:20;0.20;;;0.20;;
12127;SDS011;6127;57.702;11.904;2023-04-03T13:35:47;0.40;;;0.40;;
12127;SDS011;6127;57.702;11.904;2023-04-03T13:38:22;0.30;;;0.30;;
12127;SDS011;6127;57.702;11.904;2023-04-03T13:40:53;0.40;;;0.40;;
12127;SDS011;6127;57.702;11.904;2023-04-03T13:43:21;0.30;;;0.30;;
12127;SDS011;6127;57.702;11.904;2023-04-03T13:48:21;0.30;;;0.30;;
12127;SDS011;6127;57.702;11.904;2023-04-03T13:50:55;0.22;;;0.22;;
12127;SDS011;6127;57.702;11.904;2023-04-03T13:53:23;0.30;;;0.30;;
12127;SDS011;6127;57.702;11.904;2023-04-03T13:55:56;0.30;;;0.30;;
12127;SDS011;6127;57.702;11.904;2023-04-03T13:58:24;0.22;;;0.22;;
12127;SDS011;6127;57.702;11.904;2023-04-03T14:01:06;0.33;;;0.33;;
12127;SDS011;6127;57.702;11.904;2023-04-03T14:03:37;0.20;;;0.20;;
12127;SDS011;6127;57.702;11.904;2023-04-03T14:06:08;0.40;;;0.40;;
12127;SDS011;6127;57.702;11.904;2023-04-03T14:08:35;0.22;;;0.22;;
12127;SDS011;6127;57.702;11.904;2023-04-03T14:11:01;0.40;;;0.40;;
12127;SDS011;6127;57.702;11.904;2023-04-03T14:13:29;0.30;;;0.30;;
12127;SDS011;6127;57.702;11.904;2023-04-03T14:15:55;0.20;;;0.20;;
12127;SDS011;6127;57.702;11.904;2023-04-03T14:18:21;0.40;;;0.40;;
12127;SDS011;6127;57.702;11.904;2023-04-03T14:20:47;0.30;;;0.30;;
12127;SDS011;6127;57.702;11.904;2023-04-03T14:23:14;0.20;;;0.20;;
12127;SDS011;6127;57.702;11.904;2023-04-03T14:25:40;0.40;;;0.40;;
12127;SDS011;6127;57.702;11.904;2023-04-03T14:28:17;0.25;;;0.25;;
12127;SDS011;6127;57.702;11.904;2023-04-03T14:30:44;0.30;;;0.30;;
12127;SDS011;6127;57.702;11.904;2023-04-03T14:33:12;0.40;;;0.40;;
12127;SDS011;6127;57.702;11.904;2023-04-03T14:35:38;0.30;;;0.30;;
12127;SDS011;6127;57.702;11.904;2023-04-03T14:38:06;0.20;;;0.20;;
12127;SDS011;6127;57.702;11.904;2023-04-03T14:40:38;0.40;;;0.40;;
12127;SDS011;6127;57.702;11.904;2023-04-03T14:43:05;0.30;;;0.30;;
12127;SDS011;6127;57.702;11.904;2023-04-03T14:45:31;0.20;;;0.20;;
12127;SDS011;6127;57.702;11.904;2023-04-03T14:47:57;0.40;;;0.40;;
12127;SDS011;6127;57.702;11.904;2023-04-03T14:50:25;0.30;;;0.30;;
12127;SDS011;6127;57.702;11.904;2023-04-03T14:52:52;0.20;;;0.20;;
12127;SDS011;6127;57.702;11.904;2023-04-03T14:55:20;0.30;;;0.30;;
12127;SDS011;6127;57.702;11.904;2023-04-03T14:57:46;0.30;;;0.30;;
12127;SDS011;6127;57.702;11.904;2023-04-03T15:00:13;0.20;;;0.20;;
12127;SDS011;6127;57.702;11.904;2023-04-03T15:02:39;0.40;;;0.40;;
12127;SDS011;6127;57.702;11.904;2023-04-03T15:05:07;0.30;;;0.30;;
12127;SDS011;6127;57.702;11.904;2023-04-03T15:07:34;0.20;;;0.20;;
12127;SDS011;6127;57.702;11.904;2023-04-03T15:10:03;0.40;;;0.40;;
12127;SDS011;6127;57.702;11.904;2023-04-03T15:12:29;0.30;;;0.30;;
12127;SDS011;6127;57.702;11.904;2023-04-03T15:14:55;0.20;;;0.20;;
12127;SDS011;6127;57.702;11.904;2023-04-03T15:17:21;0.40;;;0.40;;
12127;SDS011;6127;57.702;11.904;2023-04-03T15:19:47;0.30;;;0.30;;
12127;SDS011;6127;57.702;11.904;2023-04-03T15:22:14;0.20;;;0.20;;
12127;SDS011;6127;57.702;11.904;2023-04-03T15:24:41;0.40;;;0.40;;
12127;SDS011;6127;57.702;11.904;2023-04-03T15:27:07;0.40;;;0.40;;
12127;SDS011;6127;57.702;11.904;2023-04-03T15:29:33;0.30;;;0.30;;
12127;SDS011;6127;57.702;11.904;2023-04-03T15:31:59;0.20;;;0.20;;
12127;SDS011;6127;57.702;11.904;2023-04-03T15:34:25;0.30;;;0.30;;
12127;SDS011;6127;57.702;11.904;2023-04-03T15:36:51;0.50;;;0.50;;
12127;SDS011;6127;57.702;11.904;2023-04-03T15:39:17;0.40;;;0.40;;
12127;SDS011;6127;57.702;11.904;2023-04-03T15:41:43;0.30;;;0.30;;
12127;SDS011;6127;57.702;11.904;2023-04-03T15:44:10;0.20;;;0.20;;
12127;SDS011;6127;57.702;11.904;2023-04-03T15:46:37;0.47;;;0.47;;
12127;SDS011;6127;57.702;11.904;2023-04-03T15:49:03;0.40;;;0.40;;
12127;SDS011;6127;57.702;11.904;2023-04-03T15:51:30;0.30;;;0.30;;
12127;SDS011;6127;57.702;11.904;2023-04-03T15:53:56;0.30;;;0.30;;
12127;SDS011;6127;57.702;11.904;2023-04-03T15:56:22;0.25;;;0.25;;
12127;SDS011;6127;57.702;11.904;2023-04-03T15:58:48;0.40;;;0.40;;
12127;SDS011;6127;57.702;11.904;2023-04-03T16:01:14;0.50;;;0.50;;
12127;SDS011;6127;57.702;11.904;2023-04-03T16:03:40;0.50;;;0.50;;
12127;SDS011;6127;57.702;11.904;2023-04-03T16:06:10;0.50;;;0.50;;
12127;SDS011;6127;57.702;11.904;2023-04-03T16:08:36;0.40;;;0.40;;
12127;SDS011;6127;57.702;11.904;2023-04-03T16:11:02;0.38;;;0.38;;
12127;SDS011;6127;57.702;11.904;2023-04-03T16:13:28;0.40;;;0.40;;
12127;SDS011;6127;57.702;11.904;2023-04-03T16:15:54;0.30;;;0.30;;
12127;SDS011;6127;57.702;11.904;2023-04-03T16:18:20;0.30;;;0.30;;
12127;SDS011;6127;57.702;11.904;2023-04-03T16:20:46;0.30;;;0.30;;
12127;SDS011;6127;57.702;11.904;2023-04-03T16:23:12;0.30;;;0.30;;
12127;SDS011;6127;57.702;11.904;2023-04-03T16:25:38;0.30;;;0.30;;